Leesville, Texas
Current Conditions -  °F | °C
As of 4:35 PM on Wednesday 22 Oct 2014 (Local Time) from KT20 Reporting Station
Clear Clear  
Wind Chill: 85°   Ceiling: Unl
Heat Index: 85°   Visibility: 10mi
Dew Point: 58°   Wind: 8mph
Humidity: 41%   Direction: 30°NNE
Pressure: 30.01"   Gusts: NA
Location:  29.41°N, 97.75°W
Report Text: KT20 222135Z AUTO 03007KT 10SM CLR 29/15 A3001 RMK AO2 T02930147
Loading
Personal Weather Stations






























Interactive Weather Map
Tropical Storm Tracking
New forecast layout! Learn more

10-Day Weather Forecast

Advertisements
Track Severe Weather on mobile